sensor_id;sensor_type;location;lat;lon;timestamp;P1;durP1;ratioP1;P2;durP2;ratioP2
30185;SDS011;31152;49.190;8.122;2022-12-11T00:01:14;27.85;;;11.98;;
30185;SDS011;31152;49.190;8.122;2022-12-11T00:03:43;28.88;;;12.45;;
30185;SDS011;31152;49.190;8.122;2022-12-11T00:06:11;29.65;;;11.90;;
30185;SDS011;31152;49.190;8.122;2022-12-11T00:08:42;29.13;;;12.45;;
30185;SDS011;31152;49.190;8.122;2022-12-11T00:11:15;34.63;;;13.75;;
30185;SDS011;31152;49.190;8.122;2022-12-11T00:13:42;33.97;;;12.93;;
30185;SDS011;31152;49.190;8.122;2022-12-11T00:16:09;34.90;;;15.18;;
30185;SDS011;31152;49.190;8.122;2022-12-11T00:18:36;37.00;;;12.95;;
30185;SDS011;31152;49.190;8.122;2022-12-11T00:21:06;30.88;;;12.95;;
30185;SDS011;31152;49.190;8.122;2022-12-11T00:23:36;37.85;;;14.13;;
30185;SDS011;31152;49.190;8.122;2022-12-11T00:26:07;26.55;;;12.40;;
30185;SDS011;31152;49.190;8.122;2022-12-11T00:31:08;31.08;;;12.20;;
30185;SDS011;31152;49.190;8.122;2022-12-11T00:33:37;28.88;;;11.98;;
30185;SDS011;31152;49.190;8.122;2022-12-11T00:36:09;27.40;;;12.35;;
30185;SDS011;31152;49.190;8.122;2022-12-11T00:38:37;22.98;;;11.00;;
30185;SDS011;31152;49.190;8.122;2022-12-11T00:41:04;26.90;;;12.27;;
30185;SDS011;31152;49.190;8.122;2022-12-11T00:43:31;27.60;;;12.07;;
30185;SDS011;31152;49.190;8.122;2022-12-11T00:45:58;22.48;;;11.75;;
30185;SDS011;31152;49.190;8.122;2022-12-11T00:48:24;23.95;;;11.27;;
30185;SDS011;31152;49.190;8.122;2022-12-11T00:50:51;25.63;;;11.70;;
30185;SDS011;31152;49.190;8.122;2022-12-11T00:53:18;27.05;;;12.27;;
30185;SDS011;31152;49.190;8.122;2022-12-11T00:55:45;28.75;;;12.35;;
30185;SDS011;31152;49.190;8.122;2022-12-11T00:58:12;27.05;;;12.00;;
30185;SDS011;31152;49.190;8.122;2022-12-11T01:00:39;31.48;;;12.13;;
30185;SDS011;31152;49.190;8.122;2022-12-11T01:03:07;27.10;;;11.80;;
30185;SDS011;31152;49.190;8.122;2022-12-11T01:05:35;28.55;;;12.07;;
30185;SDS011;31152;49.190;8.122;2022-12-11T01:08:02;24.95;;;11.88;;
30185;SDS011;31152;49.190;8.122;2022-12-11T01:10:29;29.55;;;12.35;;
30185;SDS011;31152;49.190;8.122;2022-12-11T01:15:30;28.00;;;12.50;;
30185;SDS011;31152;49.190;8.122;2022-12-11T01:18:05;29.83;;;12.10;;
30185;SDS011;31152;49.190;8.122;2022-12-11T01:20:32;30.60;;;12.65;;
30185;SDS011;31152;49.190;8.122;2022-12-11T01:22:59;32.38;;;13.50;;
30185;SDS011;31152;49.190;8.122;2022-12-11T01:25:28;33.70;;;12.80;;
30185;SDS011;31152;49.190;8.122;2022-12-11T01:27:55;28.50;;;12.77;;
30185;SDS011;31152;49.190;8.122;2022-12-11T01:30:26;26.35;;;12.57;;
30185;SDS011;31152;49.190;8.122;2022-12-11T01:32:53;32.40;;;13.82;;
30185;SDS011;31152;49.190;8.122;2022-12-11T01:35:22;29.83;;;12.57;;
30185;SDS011;31152;49.190;8.122;2022-12-11T01:37:49;27.40;;;12.13;;
30185;SDS011;31152;49.190;8.122;2022-12-11T01:40:16;30.45;;;12.70;;
30185;SDS011;31152;49.190;8.122;2022-12-11T01:42:44;32.33;;;12.45;;
30185;SDS011;31152;49.190;8.122;2022-12-11T01:47:58;26.30;;;12.00;;
30185;SDS011;31152;49.190;8.122;2022-12-11T01:50:29;31.25;;;11.98;;
30185;SDS011;31152;49.190;8.122;2022-12-11T01:53:01;26.95;;;12.35;;
30185;SDS011;31152;49.190;8.122;2022-12-11T01:55:30;32.28;;;13.18;;
30185;SDS011;31152;49.190;8.122;2022-12-11T01:57:58;32.42;;;13.57;;
30185;SDS011;31152;49.190;8.122;2022-12-11T02:00:25;33.75;;;14.27;;
30185;SDS011;31152;49.190;8.122;2022-12-11T02:02:52;34.33;;;14.90;;
30185;SDS011;31152;49.190;8.122;2022-12-11T02:05:18;38.25;;;16.70;;
30185;SDS011;31152;49.190;8.122;2022-12-11T02:07:47;39.97;;;15.93;;
30185;SDS011;31152;49.190;8.122;2022-12-11T02:10:20;41.45;;;16.92;;
30185;SDS011;31152;49.190;8.122;2022-12-11T02:13:03;43.05;;;17.05;;
30185;SDS011;31152;49.190;8.122;2022-12-11T02:16:20;48.65;;;17.00;;
30185;SDS011;31152;49.190;8.122;2022-12-11T02:18:44;41.17;;;16.95;;
30185;SDS011;31152;49.190;8.122;2022-12-11T02:21:27;39.03;;;17.38;;
30185;SDS011;31152;49.190;8.122;2022-12-11T02:24:06;41.80;;;17.33;;
30185;SDS011;31152;49.190;8.122;2022-12-11T02:32:31;38.05;;;17.48;;
30185;SDS011;31152;49.190;8.122;2022-12-11T02:38:17;38.63;;;15.68;;
30185;SDS011;31152;49.190;8.122;2022-12-11T02:40:48;37.83;;;15.85;;
30185;SDS011;31152;49.190;8.122;2022-12-11T02:43:18;39.78;;;17.13;;
30185;SDS011;31152;49.190;8.122;2022-12-11T02:45:46;40.50;;;16.77;;
30185;SDS011;31152;49.190;8.122;2022-12-11T02:48:15;38.25;;;15.93;;
30185;SDS011;31152;49.190;8.122;2022-12-11T02:50:45;37.67;;;16.27;;
30185;SDS011;31152;49.190;8.122;2022-12-11T02:53:17;37.03;;;16.02;;
30185;SDS011;31152;49.190;8.122;2022-12-11T02:55:46;35.38;;;15.38;;
30185;SDS011;31152;49.190;8.122;2022-12-11T02:58:18;37.70;;;15.23;;
30185;SDS011;31152;49.190;8.122;2022-12-11T03:00:50;40.83;;;16.33;;
30185;SDS011;31152;49.190;8.122;2022-12-11T03:03:17;35.40;;;15.70;;
30185;SDS011;31152;49.190;8.122;2022-12-11T03:05:43;43.00;;;17.13;;
30185;SDS011;31152;49.190;8.122;2022-12-11T03:08:11;39.00;;;16.58;;
30185;SDS011;31152;49.190;8.122;2022-12-11T03:10:43;42.42;;;17.92;;
30185;SDS011;31152;49.190;8.122;2022-12-11T03:13:13;40.70;;;17.63;;
30185;SDS011;31152;49.190;8.122;2022-12-11T03:18:16;40.30;;;16.80;;
30185;SDS011;31152;49.190;8.122;2022-12-11T03:20:59;39.08;;;16.25;;
30185;SDS011;31152;49.190;8.122;2022-12-11T03:26:09;40.58;;;16.80;;
30185;SDS011;31152;49.190;8.122;2022-12-11T03:28:40;44.22;;;17.50;;
30185;SDS011;31152;49.190;8.122;2022-12-11T03:31:11;36.20;;;18.02;;
30185;SDS011;31152;49.190;8.122;2022-12-11T03:33:43;40.40;;;17.80;;
30185;SDS011;31152;49.190;8.122;2022-12-11T03:36:18;37.83;;;17.42;;
30185;SDS011;31152;49.190;8.122;2022-12-11T03:38:50;42.83;;;18.35;;
30185;SDS011;31152;49.190;8.122;2022-12-11T03:41:22;44.07;;;18.40;;
30185;SDS011;31152;49.190;8.122;2022-12-11T03:43:54;43.78;;;18.65;;
30185;SDS011;31152;49.190;8.122;2022-12-11T03:46:26;46.42;;;17.90;;
30185;SDS011;31152;49.190;8.122;2022-12-11T03:48:57;48.55;;;18.95;;
30185;SDS011;31152;49.190;8.122;2022-12-11T03:51:27;46.20;;;18.90;;
30185;SDS011;31152;49.190;8.122;2022-12-11T03:53:55;40.20;;;18.27;;
30185;SDS011;31152;49.190;8.122;2022-12-11T03:56:23;43.33;;;18.80;;
30185;SDS011;31152;49.190;8.122;2022-12-11T03:58:53;45.90;;;18.30;;
30185;SDS011;31152;49.190;8.122;2022-12-11T04:01:22;50.00;;;18.65;;
30185;SDS011;31152;49.190;8.122;2022-12-11T04:03:49;48.88;;;19.50;;
30185;SDS011;31152;49.190;8.122;2022-12-11T04:06:16;45.65;;;18.48;;
30185;SDS011;31152;49.190;8.122;2022-12-11T04:08:42;48.13;;;19.50;;
30185;SDS011;31152;49.190;8.122;2022-12-11T04:11:09;43.40;;;17.98;;
30185;SDS011;31152;49.190;8.122;2022-12-11T04:14:00;46.25;;;18.05;;
30185;SDS011;31152;49.190;8.122;2022-12-11T04:16:46;48.15;;;20.48;;
30185;SDS011;31152;49.190;8.122;2022-12-11T04:19:15;47.65;;;19.27;;
30185;SDS011;31152;49.190;8.122;2022-12-11T04:22:01;47.83;;;20.23;;
30185;SDS011;31152;49.190;8.122;2022-12-11T04:24:47;52.20;;;20.98;;
30185;SDS011;31152;49.190;8.122;2022-12-11T04:27:15;57.88;;;22.83;;
30185;SDS011;31152;49.190;8.122;2022-12-11T04:30:06;55.97;;;20.60;;
30185;SDS011;31152;49.190;8.122;2022-12-11T04:32:35;56.80;;;21.15;;
30185;SDS011;31152;49.190;8.122;2022-12-11T04:35:02;56.58;;;21.45;;
30185;SDS011;31152;49.190;8.122;2022-12-11T04:37:29;56.47;;;21.73;;
30185;SDS011;31152;49.190;8.122;2022-12-11T04:39:59;57.08;;;22.42;;
30185;SDS011;31152;49.190;8.122;2022-12-11T04:42:25;57.22;;;21.27;;
30185;SDS011;31152;49.190;8.122;2022-12-11T04:44:54;58.10;;;22.00;;
30185;SDS011;31152;49.190;8.122;2022-12-11T04:47:23;60.05;;;22.83;;
30185;SDS011;31152;49.190;8.122;2022-12-11T04:49:50;59.13;;;22.23;;
30185;SDS011;31152;49.190;8.122;2022-12-11T04:52:19;61.33;;;22.52;;
30185;SDS011;31152;49.190;8.122;2022-12-11T04:54:46;58.03;;;22.67;;
30185;SDS011;31152;49.190;8.122;2022-12-11T04:57:12;55.97;;;22.35;;
30185;SDS011;31152;49.190;8.122;2022-12-11T04:59:39;62.30;;;23.80;;
30185;SDS011;31152;49.190;8.122;2022-12-11T05:02:06;68.03;;;23.17;;
30185;SDS011;31152;49.190;8.122;2022-12-11T05:04:33;57.95;;;21.45;;
30185;SDS011;31152;49.190;8.122;2022-12-11T05:07:00;63.30;;;23.02;;
30185;SDS011;31152;49.190;8.122;2022-12-11T05:09:29;55.70;;;21.73;;
30185;SDS011;31152;49.190;8.122;2022-12-11T05:11:56;56.28;;;21.73;;
30185;SDS011;31152;49.190;8.122;2022-12-11T05:14:23;64.75;;;21.25;;
30185;SDS011;31152;49.190;8.122;2022-12-11T05:16:51;65.97;;;23.55;;
30185;SDS011;31152;49.190;8.122;2022-12-11T05:19:18;60.00;;;22.38;;
30185;SDS011;31152;49.190;8.122;2022-12-11T05:21:44;63.05;;;21.65;;
30185;SDS011;31152;49.190;8.122;2022-12-11T05:24:11;61.38;;;21.05;;
30185;SDS011;31152;49.190;8.122;2022-12-11T05:26:40;60.92;;;21.23;;
30185;SDS011;31152;49.190;8.122;2022-12-11T05:29:07;62.47;;;22.05;;
30185;SDS011;31152;49.190;8.122;2022-12-11T05:31:36;56.20;;;21.42;;
30185;SDS011;31152;49.190;8.122;2022-12-11T05:34:02;63.55;;;22.83;;
30185;SDS011;31152;49.190;8.122;2022-12-11T05:36:31;63.65;;;22.60;;
30185;SDS011;31152;49.190;8.122;2022-12-11T05:38:58;69.45;;;24.20;;
30185;SDS011;31152;49.190;8.122;2022-12-11T05:41:29;61.78;;;22.33;;
30185;SDS011;31152;49.190;8.122;2022-12-11T05:43:57;62.88;;;23.60;;
30185;SDS011;31152;49.190;8.122;2022-12-11T05:46:25;63.63;;;23.77;;
30185;SDS011;31152;49.190;8.122;2022-12-11T05:48:56;66.45;;;23.15;;
30185;SDS011;31152;49.190;8.122;2022-12-11T05:51:25;63.53;;;22.33;;
30185;SDS011;31152;49.190;8.122;2022-12-11T05:53:53;62.20;;;21.80;;
30185;SDS011;31152;49.190;8.122;2022-12-11T05:56:22;59.15;;;21.65;;
30185;SDS011;31152;49.190;8.122;2022-12-11T05:58:51;61.33;;;21.77;;
30185;SDS011;31152;49.190;8.122;2022-12-11T06:01:20;59.40;;;22.50;;
30185;SDS011;31152;49.190;8.122;2022-12-11T06:03:52;64.72;;;23.27;;
30185;SDS011;31152;49.190;8.122;2022-12-11T06:06:19;59.83;;;21.85;;
30185;SDS011;31152;49.190;8.122;2022-12-11T06:09:04;64.38;;;23.63;;
30185;SDS011;31152;49.190;8.122;2022-12-11T06:11:32;66.32;;;22.98;;
30185;SDS011;31152;49.190;8.122;2022-12-11T06:14:02;67.47;;;22.90;;
30185;SDS011;31152;49.190;8.122;2022-12-11T06:16:29;59.80;;;22.15;;
30185;SDS011;31152;49.190;8.122;2022-12-11T06:18:57;67.85;;;23.63;;
30185;SDS011;31152;49.190;8.122;2022-12-11T06:23:56;61.13;;;22.17;;
30185;SDS011;31152;49.190;8.122;2022-12-11T06:26:27;68.43;;;23.10;;
30185;SDS011;31152;49.190;8.122;2022-12-11T06:28:54;64.00;;;21.85;;
30185;SDS011;31152;49.190;8.122;2022-12-11T06:31:21;72.65;;;23.17;;
30185;SDS011;31152;49.190;8.122;2022-12-11T06:33:47;65.65;;;23.02;;
30185;SDS011;31152;49.190;8.122;2022-12-11T06:36:18;71.65;;;23.35;;
30185;SDS011;31152;49.190;8.122;2022-12-11T06:38:50;65.45;;;23.13;;
30185;SDS011;31152;49.190;8.122;2022-12-11T06:41:17;68.15;;;24.17;;
30185;SDS011;31152;49.190;8.122;2022-12-11T06:43:49;68.78;;;23.60;;
30185;SDS011;31152;49.190;8.122;2022-12-11T06:46:16;65.95;;;23.52;;
30185;SDS011;31152;49.190;8.122;2022-12-11T06:48:44;64.40;;;24.23;;
30185;SDS011;31152;49.190;8.122;2022-12-11T06:51:16;65.05;;;22.60;;
30185;SDS011;31152;49.190;8.122;2022-12-11T06:53:48;69.63;;;23.23;;
30185;SDS011;31152;49.190;8.122;2022-12-11T06:56:18;67.78;;;23.85;;
30185;SDS011;31152;49.190;8.122;2022-12-11T06:58:46;71.78;;;22.45;;
30185;SDS011;31152;49.190;8.122;2022-12-11T07:01:13;70.63;;;22.83;;
30185;SDS011;31152;49.190;8.122;2022-12-11T07:03:44;74.00;;;24.08;;
30185;SDS011;31152;49.190;8.122;2022-12-11T07:06:11;61.25;;;23.52;;
30185;SDS011;31152;49.190;8.122;2022-12-11T07:08:38;66.80;;;24.80;;
30185;SDS011;31152;49.190;8.122;2022-12-11T07:11:09;69.75;;;24.48;;
30185;SDS011;31152;49.190;8.122;2022-12-11T07:13:38;65.10;;;23.70;;
30185;SDS011;31152;49.190;8.122;2022-12-11T07:16:08;67.60;;;23.30;;
30185;SDS011;31152;49.190;8.122;2022-12-11T07:18:40;72.28;;;24.85;;
30185;SDS011;31152;49.190;8.122;2022-12-11T07:21:08;66.43;;;24.35;;
30185;SDS011;31152;49.190;8.122;2022-12-11T07:23:37;68.00;;;25.63;;
30185;SDS011;31152;49.190;8.122;2022-12-11T07:26:04;64.30;;;24.58;;
30185;SDS011;31152;49.190;8.122;2022-12-11T07:28:33;65.03;;;23.98;;
30185;SDS011;31152;49.190;8.122;2022-12-11T07:31:07;67.32;;;24.80;;
30185;SDS011;31152;49.190;8.122;2022-12-11T07:33:39;62.63;;;23.00;;
30185;SDS011;31152;49.190;8.122;2022-12-11T07:36:07;61.22;;;22.70;;
30185;SDS011;31152;49.190;8.122;2022-12-11T07:38:35;67.47;;;23.73;;
30185;SDS011;31152;49.190;8.122;2022-12-11T07:41:03;70.53;;;25.63;;
30185;SDS011;31152;49.190;8.122;2022-12-11T07:43:31;70.88;;;25.08;;
30185;SDS011;31152;49.190;8.122;2022-12-11T07:45:59;66.85;;;24.55;;
30185;SDS011;31152;49.190;8.122;2022-12-11T07:48:29;73.57;;;24.95;;
30185;SDS011;31152;49.190;8.122;2022-12-11T07:53:46;65.28;;;23.83;;
30185;SDS011;31152;49.190;8.122;2022-12-11T07:56:14;66.57;;;22.92;;
30185;SDS011;31152;49.190;8.122;2022-12-11T07:58:42;65.90;;;23.95;;
30185;SDS011;31152;49.190;8.122;2022-12-11T08:01:12;71.40;;;25.45;;
30185;SDS011;31152;49.190;8.122;2022-12-11T08:03:44;76.25;;;25.58;;
30185;SDS011;31152;49.190;8.122;2022-12-11T08:06:11;71.85;;;25.50;;
30185;SDS011;31152;49.190;8.122;2022-12-11T08:08:39;77.70;;;26.83;;
30185;SDS011;31152;49.190;8.122;2022-12-11T08:11:08;78.07;;;27.90;;
30185;SDS011;31152;49.190;8.122;2022-12-11T08:13:36;76.63;;;25.80;;
30185;SDS011;31152;49.190;8.122;2022-12-11T08:16:04;86.32;;;28.23;;
30185;SDS011;31152;49.190;8.122;2022-12-11T08:18:33;80.30;;;25.58;;
30185;SDS011;31152;49.190;8.122;2022-12-11T08:21:04;79.22;;;26.52;;
30185;SDS011;31152;49.190;8.122;2022-12-11T08:23:32;84.78;;;27.55;;
30185;SDS011;31152;49.190;8.122;2022-12-11T08:26:05;86.63;;;27.63;;
30185;SDS011;31152;49.190;8.122;2022-12-11T08:28:34;75.93;;;24.98;;
30185;SDS011;31152;49.190;8.122;2022-12-11T08:31:05;80.82;;;26.45;;
30185;SDS011;31152;49.190;8.122;2022-12-11T08:33:34;81.85;;;25.52;;
30185;SDS011;31152;49.190;8.122;2022-12-11T08:36:05;73.70;;;24.70;;
30185;SDS011;31152;49.190;8.122;2022-12-11T08:38:34;79.35;;;24.55;;
30185;SDS011;31152;49.190;8.122;2022-12-11T08:41:20;68.38;;;23.33;;
30185;SDS011;31152;49.190;8.122;2022-12-11T08:43:51;79.03;;;24.02;;
30185;SDS011;31152;49.190;8.122;2022-12-11T08:46:21;79.85;;;26.20;;
30185;SDS011;31152;49.190;8.122;2022-12-11T08:48:49;79.18;;;23.35;;
30185;SDS011;31152;49.190;8.122;2022-12-11T08:51:16;76.25;;;25.30;;
30185;SDS011;31152;49.190;8.122;2022-12-11T08:53:45;69.00;;;23.10;;
30185;SDS011;31152;49.190;8.122;2022-12-11T08:56:13;73.95;;;25.35;;
30185;SDS011;31152;49.190;8.122;2022-12-11T08:58:41;74.72;;;24.77;;
30185;SDS011;31152;49.190;8.122;2022-12-11T09:01:10;77.78;;;23.60;;
30185;SDS011;31152;49.190;8.122;2022-12-11T09:03:43;76.03;;;24.00;;
30185;SDS011;31152;49.190;8.122;2022-12-11T09:06:10;70.88;;;23.25;;
30185;SDS011;31152;49.190;8.122;2022-12-11T09:08:39;75.53;;;23.42;;
30185;SDS011;31152;49.190;8.122;2022-12-11T09:11:28;71.80;;;22.30;;
30185;SDS011;31152;49.190;8.122;2022-12-11T09:13:59;68.80;;;22.05;;
30185;SDS011;31152;49.190;8.122;2022-12-11T09:16:33;69.07;;;21.40;;
30185;SDS011;31152;49.190;8.122;2022-12-11T09:19:02;63.55;;;22.08;;
30185;SDS011;31152;49.190;8.122;2022-12-11T09:21:29;67.53;;;21.48;;
30185;SDS011;31152;49.190;8.122;2022-12-11T09:23:57;70.95;;;22.58;;
30185;SDS011;31152;49.190;8.122;2022-12-11T09:26:25;64.97;;;23.05;;
30185;SDS011;31152;49.190;8.122;2022-12-11T09:28:54;63.10;;;21.67;;
30185;SDS011;31152;49.190;8.122;2022-12-11T09:31:23;60.25;;;22.70;;
30185;SDS011;31152;49.190;8.122;2022-12-11T09:33:55;65.57;;;22.17;;
30185;SDS011;31152;49.190;8.122;2022-12-11T09:36:24;58.33;;;21.25;;
30185;SDS011;31152;49.190;8.122;2022-12-11T09:38:53;63.00;;;21.98;;
30185;SDS011;31152;49.190;8.122;2022-12-11T09:46:33;57.90;;;20.87;;
30185;SDS011;31152;49.190;8.122;2022-12-11T09:49:19;56.63;;;20.27;;
30185;SDS011;31152;49.190;8.122;2022-12-11T09:52:01;46.22;;;18.40;;
30185;SDS011;31152;49.190;8.122;2022-12-11T09:54:33;52.45;;;19.83;;
30185;SDS011;31152;49.190;8.122;2022-12-11T09:59:59;51.03;;;19.38;;
30185;SDS011;31152;49.190;8.122;2022-12-11T10:08:31;46.95;;;18.55;;
30185;SDS011;31152;49.190;8.122;2022-12-11T10:11:35;50.55;;;18.52;;
30185;SDS011;31152;49.190;8.122;2022-12-11T10:14:13;48.50;;;19.13;;
30185;SDS011;31152;49.190;8.122;2022-12-11T10:17:03;52.33;;;18.88;;
30185;SDS011;31152;49.190;8.122;2022-12-11T10:19:39;46.10;;;19.15;;
30185;SDS011;31152;49.190;8.122;2022-12-11T10:22:16;51.65;;;19.33;;
30185;SDS011;31152;49.190;8.122;2022-12-11T10:27:42;46.55;;;17.42;;
30185;SDS011;31152;49.190;8.122;2022-12-11T10:30:17;46.20;;;18.20;;
30185;SDS011;31152;49.190;8.122;2022-12-11T10:32:51;51.90;;;18.27;;
30185;SDS011;31152;49.190;8.122;2022-12-11T10:35:56;54.00;;;18.25;;
30185;SDS011;31152;49.190;8.122;2022-12-11T10:40:56;47.05;;;19.05;;
30185;SDS011;31152;49.190;8.122;2022-12-11T10:43:35;52.97;;;18.93;;
30185;SDS011;31152;49.190;8.122;2022-12-11T10:48:58;48.60;;;18.55;;
30185;SDS011;31152;49.190;8.122;2022-12-11T10:51:33;46.65;;;18.65;;
30185;SDS011;31152;49.190;8.122;2022-12-11T10:54:07;40.88;;;17.75;;
30185;SDS011;31152;49.190;8.122;2022-12-11T10:56:44;44.67;;;17.92;;
30185;SDS011;31152;49.190;8.122;2022-12-11T10:59:21;41.58;;;16.70;;
30185;SDS011;31152;49.190;8.122;2022-12-11T11:01:49;43.90;;;17.88;;
30185;SDS011;31152;49.190;8.122;2022-12-11T11:04:19;45.15;;;18.02;;
30185;SDS011;31152;49.190;8.122;2022-12-11T11:07:03;35.00;;;15.00;;
30185;SDS011;31152;49.190;8.122;2022-12-11T11:09:40;40.08;;;17.05;;
30185;SDS011;31152;49.190;8.122;2022-12-11T11:15:21;38.63;;;16.13;;
30185;SDS011;31152;49.190;8.122;2022-12-11T11:17:52;36.25;;;15.32;;
30185;SDS011;31152;49.190;8.122;2022-12-11T11:20:25;39.22;;;16.52;;
30185;SDS011;31152;49.190;8.122;2022-12-11T11:22:56;39.35;;;15.40;;
30185;SDS011;31152;49.190;8.122;2022-12-11T11:25:29;34.72;;;15.20;;
30185;SDS011;31152;49.190;8.122;2022-12-11T11:28:01;43.03;;;15.48;;
30185;SDS011;31152;49.190;8.122;2022-12-11T11:30:33;39.00;;;15.75;;
30185;SDS011;31152;49.190;8.122;2022-12-11T11:33:02;35.72;;;15.63;;
30185;SDS011;31152;49.190;8.122;2022-12-11T11:35:49;39.83;;;15.05;;
30185;SDS011;31152;49.190;8.122;2022-12-11T11:38:18;39.42;;;16.27;;
30185;SDS011;31152;49.190;8.122;2022-12-11T11:43:44;38.00;;;16.05;;
30185;SDS011;31152;49.190;8.122;2022-12-11T11:46:24;38.45;;;15.82;;
30185;SDS011;31152;49.190;8.122;2022-12-11T11:55:03;41.85;;;16.40;;
30185;SDS011;31152;49.190;8.122;2022-12-11T11:57:55;38.63;;;15.75;;
30185;SDS011;31152;49.190;8.122;2022-12-11T12:00:33;37.15;;;15.32;;
30185;SDS011;31152;49.190;8.122;2022-12-11T12:03:00;35.83;;;14.70;;
30185;SDS011;31152;49.190;8.122;2022-12-11T12:10:43;36.05;;;14.80;;
30185;SDS011;31152;49.190;8.122;2022-12-11T12:13:29;36.15;;;14.10;;
30185;SDS011;31152;49.190;8.122;2022-12-11T12:16:25;32.03;;;13.38;;
30185;SDS011;31152;49.190;8.122;2022-12-11T12:21:52;36.38;;;15.18;;
30185;SDS011;31152;49.190;8.122;2022-12-11T12:25:04;33.75;;;14.32;;
30185;SDS011;31152;49.190;8.122;2022-12-11T12:30:24;39.75;;;15.68;;
30185;SDS011;31152;49.190;8.122;2022-12-11T12:35:39;32.92;;;14.70;;
30185;SDS011;31152;49.190;8.122;2022-12-11T12:41:21;37.40;;;15.43;;
30185;SDS011;31152;49.190;8.122;2022-12-11T12:44:13;36.65;;;15.70;;
30185;SDS011;31152;49.190;8.122;2022-12-11T12:46:48;37.63;;;15.27;;
30185;SDS011;31152;49.190;8.122;2022-12-11T12:49:26;40.85;;;16.65;;
30185;SDS011;31152;49.190;8.122;2022-12-11T12:51:53;39.80;;;16.02;;
30185;SDS011;31152;49.190;8.122;2022-12-11T12:54:22;36.90;;;15.35;;
30185;SDS011;31152;49.190;8.122;2022-12-11T12:56:52;37.70;;;15.57;;
30185;SDS011;31152;49.190;8.122;2022-12-11T12:59:26;35.65;;;14.55;;
30185;SDS011;31152;49.190;8.122;2022-12-11T13:01:58;35.55;;;15.13;;
30185;SDS011;31152;49.190;8.122;2022-12-11T13:04:40;34.83;;;15.10;;
30185;SDS011;31152;49.190;8.122;2022-12-11T13:07:28;36.78;;;14.75;;
30185;SDS011;31152;49.190;8.122;2022-12-11T13:12:31;32.33;;;13.70;;
30185;SDS011;31152;49.190;8.122;2022-12-11T13:15:04;40.72;;;17.17;;
30185;SDS011;31152;49.190;8.122;2022-12-11T13:17:36;40.78;;;16.90;;
30185;SDS011;31152;49.190;8.122;2022-12-11T13:20:12;43.95;;;17.95;;
30185;SDS011;31152;49.190;8.122;2022-12-11T13:25:55;42.22;;;17.40;;
30185;SDS011;31152;49.190;8.122;2022-12-11T13:30:58;43.10;;;16.98;;
30185;SDS011;31152;49.190;8.122;2022-12-11T13:33:28;46.80;;;19.73;;
30185;SDS011;31152;49.190;8.122;2022-12-11T13:39:05;51.03;;;19.85;;
30185;SDS011;31152;49.190;8.122;2022-12-11T13:41:42;51.88;;;20.70;;
30185;SDS011;31152;49.190;8.122;2022-12-11T13:44:15;51.72;;;20.20;;
30185;SDS011;31152;49.190;8.122;2022-12-11T13:46:48;53.13;;;21.08;;
30185;SDS011;31152;49.190;8.122;2022-12-11T13:49:23;50.22;;;20.45;;
30185;SDS011;31152;49.190;8.122;2022-12-11T13:51:56;53.85;;;20.42;;
30185;SDS011;31152;49.190;8.122;2022-12-11T13:54:24;54.50;;;20.35;;
30185;SDS011;31152;49.190;8.122;2022-12-11T13:56:57;48.50;;;19.55;;
30185;SDS011;31152;49.190;8.122;2022-12-11T13:59:36;54.47;;;21.02;;
30185;SDS011;31152;49.190;8.122;2022-12-11T14:04:43;50.65;;;19.52;;
30185;SDS011;31152;49.190;8.122;2022-12-11T14:07:14;59.83;;;21.48;;
30185;SDS011;31152;49.190;8.122;2022-12-11T14:09:45;54.67;;;21.25;;
30185;SDS011;31152;49.190;8.122;2022-12-11T14:12:16;51.92;;;21.40;;
30185;SDS011;31152;49.190;8.122;2022-12-11T14:14:49;55.00;;;20.65;;
30185;SDS011;31152;49.190;8.122;2022-12-11T14:17:27;58.58;;;22.35;;
30185;SDS011;31152;49.190;8.122;2022-12-11T14:19:57;56.85;;;21.90;;
30185;SDS011;31152;49.190;8.122;2022-12-11T14:22:28;54.90;;;21.48;;
30185;SDS011;31152;49.190;8.122;2022-12-11T14:24:56;55.40;;;22.33;;
30185;SDS011;31152;49.190;8.122;2022-12-11T14:27:25;57.83;;;23.08;;
30185;SDS011;31152;49.190;8.122;2022-12-11T14:29:54;61.55;;;22.52;;
30185;SDS011;31152;49.190;8.122;2022-12-11T14:32:30;56.15;;;22.52;;
30185;SDS011;31152;49.190;8.122;2022-12-11T14:35:01;58.40;;;22.42;;
30185;SDS011;31152;49.190;8.122;2022-12-11T14:37:31;62.38;;;21.90;;
30185;SDS011;31152;49.190;8.122;2022-12-11T14:40:01;64.35;;;23.20;;
30185;SDS011;31152;49.190;8.122;2022-12-11T14:42:36;57.83;;;22.30;;
30185;SDS011;31152;49.190;8.122;2022-12-11T14:47:43;57.80;;;21.10;;
30185;SDS011;31152;49.190;8.122;2022-12-11T14:50:18;55.88;;;20.70;;
30185;SDS011;31152;49.190;8.122;2022-12-11T14:52:56;59.35;;;21.90;;
30185;SDS011;31152;49.190;8.122;2022-12-11T14:55:26;62.65;;;22.50;;
30185;SDS011;31152;49.190;8.122;2022-12-11T14:57:59;62.40;;;23.13;;
30185;SDS011;31152;49.190;8.122;2022-12-11T15:00:35;69.32;;;25.08;;
30185;SDS011;31152;49.190;8.122;2022-12-11T15:03:06;65.22;;;23.77;;
30185;SDS011;31152;49.190;8.122;2022-12-11T15:05:50;61.88;;;22.77;;
30185;SDS011;31152;49.190;8.122;2022-12-11T15:08:24;59.83;;;23.08;;
30185;SDS011;31152;49.190;8.122;2022-12-11T15:11:03;58.33;;;22.80;;
30185;SDS011;31152;49.190;8.122;2022-12-11T15:13:58;64.55;;;22.83;;
30185;SDS011;31152;49.190;8.122;2022-12-11T15:16:29;60.22;;;22.67;;
30185;SDS011;31152;49.190;8.122;2022-12-11T15:18:58;62.90;;;22.73;;
30185;SDS011;31152;49.190;8.122;2022-12-11T15:21:28;65.95;;;24.08;;
30185;SDS011;31152;49.190;8.122;2022-12-11T15:23:58;66.05;;;23.35;;
30185;SDS011;31152;49.190;8.122;2022-12-11T15:26:36;59.78;;;22.77;;
30185;SDS011;31152;49.190;8.122;2022-12-11T15:34:45;59.78;;;21.60;;
30185;SDS011;31152;49.190;8.122;2022-12-11T15:37:19;61.28;;;22.75;;
30185;SDS011;31152;49.190;8.122;2022-12-11T15:39:54;67.47;;;23.50;;
30185;SDS011;31152;49.190;8.122;2022-12-11T15:42:26;60.25;;;21.88;;
30185;SDS011;31152;49.190;8.122;2022-12-11T15:44:58;66.45;;;22.83;;
30185;SDS011;31152;49.190;8.122;2022-12-11T15:47:28;58.97;;;20.63;;
30185;SDS011;31152;49.190;8.122;2022-12-11T15:52:43;63.50;;;23.90;;
30185;SDS011;31152;49.190;8.122;2022-12-11T15:55:11;67.90;;;23.70;;
30185;SDS011;31152;49.190;8.122;2022-12-11T15:57:43;60.42;;;23.92;;
30185;SDS011;31152;49.190;8.122;2022-12-11T16:00:23;64.90;;;21.08;;
30185;SDS011;31152;49.190;8.122;2022-12-11T16:02:52;64.15;;;22.48;;
30185;SDS011;31152;49.190;8.122;2022-12-11T16:05:20;63.88;;;22.73;;
30185;SDS011;31152;49.190;8.122;2022-12-11T16:07:49;62.80;;;21.95;;
30185;SDS011;31152;49.190;8.122;2022-12-11T16:10:24;65.88;;;22.67;;
30185;SDS011;31152;49.190;8.122;2022-12-11T16:12:52;72.25;;;23.55;;
30185;SDS011;31152;49.190;8.122;2022-12-11T16:15:25;70.87;;;25.20;;
30185;SDS011;31152;49.190;8.122;2022-12-11T16:18:08;68.90;;;22.95;;
30185;SDS011;31152;49.190;8.122;2022-12-11T16:20:40;64.68;;;23.40;;
30185;SDS011;31152;49.190;8.122;2022-12-11T16:23:08;58.78;;;22.30;;
30185;SDS011;31152;49.190;8.122;2022-12-11T16:25:39;64.30;;;23.13;;
30185;SDS011;31152;49.190;8.122;2022-12-11T16:28:07;66.50;;;22.52;;
30185;SDS011;31152;49.190;8.122;2022-12-11T16:30:38;63.15;;;22.60;;